createdAt,value
2017-11-04T00:00:53.586Z,57.97
2017-11-04T00:03:21.203Z,64.75
2017-11-04T00:05:48.787Z,59.60
2017-11-04T00:08:16.404Z,54.08
2017-11-04T00:10:43.961Z,56.50
2017-11-04T00:13:11.552Z,58.25
2017-11-04T00:15:39.160Z,55.45
2017-11-04T00:18:07.499Z,59.65
2017-11-04T00:20:35.120Z,47.65
2017-11-04T00:23:02.705Z,54.13
2017-11-04T00:25:31.658Z,54.83
2017-11-04T00:28:00.323Z,52.05
2017-11-04T00:30:27.952Z,47.50
2017-11-04T00:32:56.434Z,49.47
2017-11-04T00:35:24.868Z,52.47
2017-11-04T00:37:52.440Z,48.05
2017-11-04T00:40:20.056Z,54.95
2017-11-04T00:42:47.627Z,57.55
2017-11-04T00:45:15.263Z,52.40
2017-11-04T00:47:42.900Z,52.88
2017-11-04T00:50:11.272Z,55.70
2017-11-04T00:52:38.864Z,53.40
2017-11-04T00:55:06.902Z,52.92
2017-11-04T00:57:34.499Z,50.63
2017-11-04T01:00:02.077Z,43.83
2017-11-04T01:02:30.237Z,54.80
2017-11-04T01:04:57.885Z,53.00
2017-11-04T01:07:25.505Z,57.17
2017-11-04T01:09:53.113Z,50.97
2017-11-04T01:12:20.740Z,55.17
2017-11-04T01:14:48.335Z,51.88
2017-11-04T01:17:15.935Z,51.37
2017-11-04T01:19:43.560Z,52.70
2017-11-04T01:22:11.165Z,44.03
2017-11-04T01:24:38.747Z,50.53
2017-11-04T01:27:07.613Z,50.28
2017-11-04T01:29:35.239Z,46.60
2017-11-04T01:32:03.700Z,48.90
2017-11-04T01:34:31.290Z,53.35
2017-11-04T01:36:58.901Z,49.03
2017-11-04T01:39:27.298Z,56.42
2017-11-04T01:41:54.883Z,51.85
2017-11-04T01:44:22.563Z,47.33
2017-11-04T01:46:50.165Z,52.22
2017-11-04T01:49:18.539Z,49.72
2017-11-04T01:51:46.158Z,43.70
2017-11-04T01:54:14.140Z,46.95
2017-11-04T01:56:43.137Z,48.00
2017-11-04T01:59:11.058Z,47.45
2017-11-04T02:01:38.699Z,50.17
2017-11-04T02:04:07.094Z,47.85
2017-11-04T02:06:34.749Z,46.20
2017-11-04T02:09:02.386Z,39.25
2017-11-04T02:11:29.954Z,47.67
2017-11-04T02:13:57.539Z,48.28
2017-11-04T02:16:25.138Z,46.00
2017-11-04T02:18:52.731Z,43.38
2017-11-04T02:21:20.394Z,45.55
2017-11-04T02:23:48.099Z,45.10
2017-11-04T02:26:15.855Z,52.70
2017-11-04T02:28:43.428Z,49.95
2017-11-04T02:31:11.245Z,46.90
2017-11-04T02:33:38.850Z,54.92
2017-11-04T02:36:07.260Z,54.50
2017-11-04T02:38:34.877Z,50.00
2017-11-04T02:41:02.445Z,59.13
2017-11-04T02:43:30.080Z,51.63
2017-11-04T02:45:57.969Z,59.63
2017-11-04T02:48:25.628Z,49.83
2017-11-04T02:50:53.206Z,54.35
2017-11-04T02:53:20.841Z,46.83
2017-11-04T02:55:49.299Z,43.85
2017-11-04T02:58:17.678Z,45.78
2017-11-04T03:00:45.324Z,45.70
2017-11-04T03:03:12.914Z,46.50
2017-11-04T03:05:41.342Z,44.55
2017-11-04T03:08:09.684Z,39.33
2017-11-04T03:10:38.065Z,42.55
2017-11-04T03:13:05.661Z,47.60
2017-11-04T03:15:33.983Z,41.65
2017-11-04T03:18:02.402Z,38.55
2017-11-04T03:20:30.034Z,48.75
2017-11-04T03:22:58.404Z,45.00
2017-11-04T03:25:27.424Z,40.83
2017-11-04T03:27:55.025Z,42.95
2017-11-04T03:30:22.648Z,40.65
2017-11-04T03:32:50.270Z,41.17
2017-11-04T03:35:17.940Z,37.85
2017-11-04T03:37:45.537Z,40.97
2017-11-04T03:42:47.104Z,44.50
2017-11-04T03:45:15.071Z,45.22
2017-11-04T03:47:43.275Z,45.15
2017-11-04T03:50:10.879Z,39.95
2017-11-04T03:52:39.324Z,44.10
2017-11-04T03:55:06.916Z,46.40
2017-11-04T03:57:34.561Z,47.10
2017-11-04T04:00:02.116Z,38.17
2017-11-04T04:02:29.701Z,38.65
2017-11-04T04:04:57.342Z,44.20
2017-11-04T04:07:24.906Z,37.58
2017-11-04T04:09:52.493Z,38.25
2017-11-04T04:12:21.675Z,38.83
2017-11-04T04:14:49.270Z,39.20
2017-11-04T04:17:16.856Z,40.60
2017-11-04T04:19:45.105Z,42.67
2017-11-04T04:22:12.696Z,35.38
2017-11-04T04:24:42.166Z,36.20
2017-11-04T04:27:09.792Z,37.05
2017-11-04T04:29:38.172Z,43.15
2017-11-04T04:32:06.524Z,39.30
2017-11-04T04:34:34.117Z,45.38
2017-11-04T04:37:02.462Z,37.20
2017-11-04T04:39:30.072Z,38.58
2017-11-04T04:41:57.663Z,35.65
2017-11-04T04:44:25.254Z,36.92
2017-11-04T04:46:52.880Z,44.67
2017-11-04T04:49:20.479Z,41.40
2017-11-04T04:51:48.849Z,34.17
2017-11-04T04:54:17.201Z,45.83
2017-11-04T04:56:44.847Z,38.83
2017-11-04T04:59:12.436Z,33.47
2017-11-04T05:01:40.384Z,33.13
2017-11-04T05:04:07.977Z,30.58
2017-11-04T05:06:35.897Z,35.13
2017-11-04T05:09:03.523Z,36.80
2017-11-04T05:11:31.896Z,35.65
2017-11-04T05:13:59.450Z,37.13
2017-11-04T05:16:27.005Z,30.23
2017-11-04T05:18:55.313Z,43.65
2017-11-04T05:21:23.641Z,36.13
2017-11-04T05:23:51.223Z,32.55
2017-11-04T05:26:18.790Z,41.80
2017-11-04T05:28:47.063Z,36.08
2017-11-04T05:31:14.954Z,31.23
2017-11-04T05:33:43.036Z,38.22
2017-11-04T05:36:11.455Z,40.72
2017-11-04T05:38:39.028Z,32.72
2017-11-04T05:41:06.604Z,35.35
2017-11-04T05:43:35.117Z,33.90
2017-11-04T05:46:02.706Z,37.88
2017-11-04T05:48:30.300Z,44.08
2017-11-04T05:50:57.998Z,37.83
2017-11-04T05:53:26.384Z,37.88
2017-11-04T05:55:54.128Z,37.90
2017-11-04T05:58:21.694Z,43.97
2017-11-04T06:00:49.318Z,47.22
2017-11-04T06:03:16.907Z,37.72
2017-11-04T06:05:44.488Z,42.22
2017-11-04T06:08:12.102Z,44.42
2017-11-04T06:10:40.471Z,43.70
2017-11-04T06:13:08.081Z,37.10
2017-11-04T06:15:35.734Z,44.83
2017-11-04T06:18:03.338Z,49.45
2017-11-04T06:20:31.473Z,44.78
2017-11-04T06:22:59.118Z,45.80
2017-11-04T06:25:27.509Z,36.40
2017-11-04T06:27:55.393Z,39.75
2017-11-04T06:30:23.018Z,39.80
2017-11-04T06:32:50.634Z,42.97
2017-11-04T06:35:18.243Z,49.25
2017-11-04T06:37:46.693Z,41.42
2017-11-04T06:40:14.340Z,46.58
2017-11-04T06:42:41.942Z,40.88
2017-11-04T06:45:11.244Z,42.47
2017-11-04T06:47:39.568Z,43.55
2017-11-04T06:50:07.186Z,38.70
2017-11-04T06:52:35.544Z,36.65
2017-11-04T06:55:03.126Z,35.33
2017-11-04T06:57:31.668Z,38.60
2017-11-04T07:00:00.273Z,31.98
2017-11-04T07:02:27.901Z,37.05
2017-11-04T07:04:55.503Z,35.15
2017-11-04T07:07:23.075Z,36.22
2017-11-04T07:09:51.512Z,49.67
2017-11-04T07:12:19.136Z,35.13
2017-11-04T07:14:46.772Z,35.88
2017-11-04T07:17:15.216Z,54.25
2017-11-04T07:19:42.797Z,38.50
2017-11-04T07:22:10.369Z,38.33
2017-11-04T07:24:38.804Z,32.78
2017-11-04T07:27:06.467Z,34.47
2017-11-04T07:29:34.757Z,39.97
2017-11-04T07:32:02.312Z,37.42
2017-11-04T07:34:30.302Z,38.58
2017-11-04T07:36:57.868Z,33.05
2017-11-04T07:39:25.863Z,39.20
2017-11-04T07:41:54.222Z,46.97
2017-11-04T07:44:21.811Z,38.75
2017-11-04T07:46:49.452Z,40.67
2017-11-04T07:49:17.758Z,32.45
2017-11-04T07:51:45.385Z,36.47
2017-11-04T07:54:12.935Z,36.03
2017-11-04T07:56:40.537Z,40.00
2017-11-04T07:59:08.186Z,36.78
2017-11-04T08:01:36.520Z,38.67
2017-11-04T08:04:04.171Z,34.97
2017-11-04T08:06:31.777Z,32.83
2017-11-04T08:08:59.356Z,43.47
2017-11-04T08:11:26.991Z,31.23
2017-11-04T08:13:54.546Z,33.92
2017-11-04T08:16:22.212Z,31.55
2017-11-04T08:18:50.819Z,34.38
2017-11-04T08:21:18.662Z,32.08
2017-11-04T08:23:47.023Z,31.58
2017-11-04T08:26:15.956Z,32.10
2017-11-04T08:28:43.591Z,34.63
2017-11-04T08:31:11.188Z,39.58
2017-11-04T08:33:38.748Z,34.42
2017-11-04T08:36:06.357Z,44.80
2017-11-04T08:38:34.251Z,35.10
2017-11-04T08:41:06.769Z,36.65
2017-11-04T08:43:35.133Z,36.95
2017-11-04T08:46:02.793Z,41.45
2017-11-04T08:48:30.399Z,28.83
2017-11-04T08:50:58.916Z,35.10
2017-11-04T08:53:26.570Z,34.42
2017-11-04T08:55:54.913Z,30.42
2017-11-04T08:58:22.498Z,38.90
2017-11-04T09:00:50.085Z,34.08
2017-11-04T09:03:17.663Z,35.58
2017-11-04T09:05:45.274Z,29.67
2017-11-04T09:08:12.845Z,37.22
2017-11-04T09:10:40.492Z,32.38
2017-11-04T09:13:08.894Z,37.90
2017-11-04T09:15:36.540Z,37.00
2017-11-04T09:18:05.721Z,39.15
2017-11-04T09:20:33.302Z,33.38
2017-11-04T09:23:01.670Z,35.65
2017-11-04T09:25:29.256Z,39.42
2017-11-04T09:27:56.879Z,35.35
2017-11-04T09:30:24.486Z,37.15
2017-11-04T09:32:52.267Z,36.95
2017-11-04T09:35:20.007Z,33.13
2017-11-04T09:37:48.449Z,35.50
2017-11-04T09:40:16.030Z,39.05
2017-11-04T09:42:43.640Z,32.92
2017-11-04T09:45:11.266Z,34.40
2017-11-04T09:47:39.625Z,37.10
2017-11-04T09:50:07.251Z,40.90
2017-11-04T09:52:35.757Z,38.65
2017-11-04T09:55:03.484Z,33.97
2017-11-04T09:57:31.052Z,39.30
2017-11-04T09:59:58.614Z,41.05
2017-11-04T10:02:26.223Z,42.80
2017-11-04T10:04:54.598Z,39.97
2017-11-04T10:07:22.988Z,36.60
2017-11-04T10:09:51.338Z,41.60
2017-11-04T10:12:18.910Z,35.95
2017-11-04T10:14:46.622Z,37.63
2017-11-04T10:17:14.236Z,47.20
2017-11-04T10:19:42.620Z,40.45
2017-11-04T10:22:11.092Z,33.78
2017-11-04T10:24:39.633Z,40.85
2017-11-04T10:27:07.248Z,44.92
2017-11-04T10:29:35.610Z,33.63
2017-11-04T10:32:03.286Z,50.30
2017-11-04T10:34:31.670Z,46.53
2017-11-04T10:37:00.025Z,47.92
2017-11-04T10:39:27.726Z,41.80
2017-11-04T10:41:55.366Z,38.25
2017-11-04T10:44:22.980Z,36.28
2017-11-04T10:46:50.645Z,35.45
2017-11-04T10:49:19.101Z,34.95
2017-11-04T10:51:46.692Z,34.40
2017-11-04T10:54:15.204Z,45.20
2017-11-04T10:56:42.946Z,36.10
2017-11-04T10:59:10.545Z,36.03
2017-11-04T11:01:38.169Z,44.28
2017-11-04T11:04:06.558Z,40.17
2017-11-04T11:06:34.227Z,36.85
2017-11-04T11:09:01.855Z,46.63
2017-11-04T11:11:29.488Z,40.25
2017-11-04T11:13:57.151Z,36.75
2017-11-04T11:16:24.755Z,39.15
2017-11-04T11:18:53.130Z,40.20
2017-11-04T11:21:21.506Z,37.10
2017-11-04T11:23:49.844Z,31.00
2017-11-04T11:26:17.460Z,33.90
2017-11-04T11:28:45.120Z,39.03
2017-11-04T11:31:12.794Z,38.03
2017-11-04T11:33:41.289Z,37.65
2017-11-04T11:36:08.880Z,45.75
2017-11-04T11:38:37.990Z,52.45
2017-11-04T11:41:06.377Z,44.67
2017-11-04T11:43:34.733Z,37.92
2017-11-04T11:46:02.349Z,41.45
2017-11-04T11:48:29.981Z,35.73
2017-11-04T11:50:58.383Z,46.88
2017-11-04T11:53:25.977Z,38.83
2017-11-04T11:55:53.558Z,36.20
2017-11-04T11:58:21.595Z,40.77
2017-11-04T12:00:50.024Z,44.13
2017-11-04T12:03:17.677Z,33.83
2017-11-04T12:05:45.295Z,34.60
2017-11-04T12:08:13.084Z,32.23
2017-11-04T12:10:40.727Z,30.07
2017-11-04T12:13:08.365Z,34.43
2017-11-04T12:15:35.962Z,30.67
2017-11-04T12:18:03.564Z,33.97
2017-11-04T12:20:31.198Z,36.67
2017-11-04T12:22:58.785Z,33.67
2017-11-04T12:25:26.440Z,32.23
2017-11-04T12:27:54.080Z,33.17
2017-11-04T12:30:21.735Z,37.43
2017-11-04T12:32:49.446Z,32.23
2017-11-04T12:35:18.668Z,30.60
2017-11-04T12:37:46.290Z,30.53
2017-11-04T12:40:14.147Z,32.67
2017-11-04T12:42:41.713Z,33.47
2017-11-04T12:45:09.320Z,33.07
2017-11-04T12:47:36.917Z,29.60
2017-11-04T12:50:04.520Z,34.23
2017-11-04T12:52:32.290Z,27.53
2017-11-04T12:55:00.662Z,35.20
2017-11-04T12:57:28.295Z,30.20
2017-11-04T12:59:55.955Z,32.27
2017-11-04T13:02:24.577Z,37.93
2017-11-04T13:04:52.187Z,35.33
2017-11-04T13:07:20.570Z,38.70
2017-11-04T13:09:48.190Z,35.57
2017-11-04T13:12:15.762Z,34.33
2017-11-04T13:14:43.418Z,31.67
2017-11-04T13:17:11.105Z,39.00
2017-11-04T13:19:38.712Z,34.07
2017-11-04T13:22:06.406Z,34.40
2017-11-04T13:24:34.157Z,30.90
2017-11-04T13:27:01.789Z,32.67
2017-11-04T13:29:30.372Z,42.93
2017-11-04T13:31:58.777Z,27.90
2017-11-04T13:34:26.392Z,34.90
2017-11-04T13:36:54.001Z,30.20
2017-11-04T13:39:21.638Z,31.80
2017-11-04T13:41:50.133Z,30.17
2017-11-04T13:44:17.798Z,33.20
2017-11-04T13:46:45.447Z,30.80
2017-11-04T13:49:13.830Z,25.87
2017-11-04T13:51:42.170Z,28.20
2017-11-04T13:54:09.799Z,31.53
2017-11-04T13:56:37.386Z,28.80
2017-11-04T13:59:04.986Z,27.33
2017-11-04T14:01:32.676Z,26.13
2017-11-04T14:04:00.288Z,27.50
2017-11-04T14:06:27.887Z,24.17
2017-11-04T14:08:55.513Z,24.90
2017-11-04T14:11:23.085Z,30.00
2017-11-04T14:13:50.666Z,24.80
2017-11-04T14:16:18.282Z,30.77
2017-11-04T14:18:45.936Z,27.57
2017-11-04T14:21:13.533Z,27.80
2017-11-04T14:23:41.992Z,27.27
2017-11-04T14:26:10.391Z,38.03
2017-11-04T14:28:38.843Z,27.40
2017-11-04T14:31:06.443Z,26.63
2017-11-04T14:33:34.084Z,27.53
2017-11-04T14:36:01.687Z,27.20
2017-11-04T14:38:29.256Z,31.73
2017-11-04T14:40:56.960Z,27.23
2017-11-04T14:43:24.559Z,25.70
2017-11-04T14:45:52.161Z,27.03
2017-11-04T14:48:19.801Z,30.23
2017-11-04T14:50:47.386Z,28.80
2017-11-04T14:53:15.115Z,22.30
2017-11-04T14:55:42.716Z,26.00
2017-11-04T14:58:11.057Z,25.43
2017-11-04T15:00:38.672Z,25.23
2017-11-04T15:03:06.251Z,20.20
2017-11-04T15:05:33.812Z,22.60
2017-11-04T15:08:01.432Z,21.67
2017-11-04T15:10:29.841Z,18.93
2017-11-04T15:12:57.485Z,20.43
2017-11-04T15:15:25.199Z,20.40
2017-11-04T15:17:53.595Z,17.43
2017-11-04T15:20:21.211Z,17.20
2017-11-04T15:22:48.817Z,20.37
2017-11-04T15:25:16.507Z,19.67
2017-11-04T15:27:44.860Z,18.13
2017-11-04T15:30:12.489Z,20.30
2017-11-04T15:32:40.997Z,17.90
2017-11-04T15:35:08.657Z,20.50
2017-11-04T15:37:36.265Z,16.03
2017-11-04T15:40:03.852Z,16.50
2017-11-04T15:42:31.459Z,16.67
2017-11-04T15:44:59.837Z,20.23
2017-11-04T15:47:27.513Z,17.30
2017-11-04T15:49:55.898Z,24.17
2017-11-04T15:52:23.461Z,20.17
2017-11-04T15:54:51.909Z,21.60
2017-11-04T15:57:19.475Z,18.27
2017-11-04T15:59:47.046Z,18.27
2017-11-04T16:02:14.704Z,17.80
2017-11-04T16:04:42.287Z,15.73
2017-11-04T16:07:09.924Z,16.03
2017-11-04T16:09:37.593Z,17.53
2017-11-04T16:12:05.212Z,19.10
2017-11-04T16:14:33.613Z,16.37
2017-11-04T16:17:01.182Z,19.53
2017-11-04T16:19:28.829Z,16.30
2017-11-04T16:21:57.234Z,15.07
2017-11-04T16:24:24.858Z,20.47
2017-11-04T16:26:54.085Z,14.20
2017-11-04T16:29:21.688Z,16.63
2017-11-04T16:31:49.313Z,15.73
2017-11-04T16:34:17.870Z,17.93
2017-11-04T16:36:46.235Z,14.83
2017-11-04T16:39:14.642Z,14.40
2017-11-04T16:41:42.233Z,16.53
2017-11-04T16:44:09.855Z,15.23
2017-11-04T16:46:37.515Z,15.80
2017-11-04T16:49:05.066Z,17.63
2017-11-04T16:51:32.653Z,15.20
2017-11-04T16:54:00.272Z,18.83
2017-11-04T16:56:27.862Z,13.57
2017-11-04T16:58:55.453Z,16.93
2017-11-04T17:01:23.892Z,17.50
2017-11-04T17:03:51.498Z,15.83
2017-11-04T17:06:19.113Z,16.70
2017-11-04T17:08:46.744Z,12.67
2017-11-04T17:11:14.408Z,15.80
2017-11-04T17:13:42.087Z,15.67
2017-11-04T17:16:09.696Z,17.50
2017-11-04T17:18:37.369Z,17.10
2017-11-04T17:21:05.813Z,14.10
2017-11-04T17:23:33.416Z,20.10
2017-11-04T17:26:01.901Z,18.80
2017-11-04T17:28:29.477Z,12.57
2017-11-04T17:30:57.564Z,12.70
2017-11-04T17:33:25.180Z,19.77
2017-11-04T17:35:54.521Z,11.50
2017-11-04T17:38:22.181Z,14.50
2017-11-04T17:40:49.758Z,14.27
2017-11-04T17:43:17.359Z,13.33
2017-11-04T17:45:45.043Z,10.93
2017-11-04T17:48:12.665Z,11.47
2017-11-04T17:50:40.296Z,9.87
2017-11-04T17:53:07.912Z,11.13
2017-11-04T17:55:35.701Z,14.77
2017-11-04T17:58:04.133Z,10.70
2017-11-04T18:00:31.783Z,11.10
2017-11-04T18:03:00.188Z,22.13
2017-11-04T18:05:28.736Z,9.53
2017-11-04T18:07:56.428Z,17.30
2017-11-04T18:10:24.080Z,10.60
2017-11-04T18:12:51.771Z,12.27
2017-11-04T18:15:19.436Z,13.57
2017-11-04T18:17:47.795Z,11.60
2017-11-04T18:20:15.489Z,12.47
2017-11-04T18:22:43.193Z,23.03
2017-11-04T18:25:10.981Z,12.77
2017-11-04T18:27:38.650Z,13.40
2017-11-04T18:30:06.328Z,18.10
2017-11-04T18:32:33.963Z,11.93
2017-11-04T18:35:01.616Z,14.10
2017-11-04T18:37:29.964Z,13.33
2017-11-04T18:39:57.630Z,11.23
2017-11-04T18:42:25.237Z,14.07
2017-11-04T18:44:52.850Z,13.23
2017-11-04T18:47:20.477Z,11.30
2017-11-04T18:49:48.091Z,11.90
2017-11-04T18:52:15.749Z,13.30
2017-11-04T18:54:43.336Z,13.83
2017-11-04T18:57:10.929Z,13.07
2017-11-04T18:59:38.559Z,14.73
2017-11-04T19:02:06.346Z,12.40
2017-11-04T19:04:34.122Z,14.67
2017-11-04T19:07:02.563Z,13.60
2017-11-04T19:09:30.160Z,17.93
2017-11-04T19:11:57.748Z,15.40
2017-11-04T19:14:25.790Z,14.93
2017-11-04T19:16:53.416Z,20.87
2017-11-04T19:19:21.016Z,65.27
2017-11-04T19:21:48.701Z,33.87
2017-11-04T19:24:16.322Z,26.67
2017-11-04T19:26:44.049Z,26.93
2017-11-04T19:29:12.474Z,17.13
2017-11-04T19:31:40.202Z,18.40
2017-11-04T19:34:07.843Z,18.60
2017-11-04T19:36:35.495Z,28.13
2017-11-04T19:39:03.365Z,20.77
2017-11-04T19:41:31.005Z,21.70
2017-11-04T19:43:59.359Z,19.70
2017-11-04T19:46:26.928Z,15.73
2017-11-04T19:48:55.317Z,19.80
2017-11-04T19:51:23.752Z,18.40
2017-11-04T19:53:51.391Z,20.13
2017-11-04T19:56:19.041Z,22.07
2017-11-04T19:58:46.671Z,20.60
2017-11-04T20:01:14.444Z,19.33
2017-11-04T20:03:42.070Z,21.53
2017-11-04T20:06:09.725Z,18.93
2017-11-04T20:08:38.099Z,19.30
2017-11-04T20:11:05.659Z,19.77
2017-11-04T20:13:33.290Z,21.60
2017-11-04T20:16:01.732Z,19.87
2017-11-04T20:18:29.829Z,18.03
2017-11-04T20:20:58.176Z,17.67
2017-11-04T20:23:26.660Z,16.83
2017-11-04T20:25:54.249Z,19.30
2017-11-04T20:28:21.912Z,17.08
2017-11-04T20:30:49.493Z,18.00
2017-11-04T20:33:17.074Z,23.58
2017-11-04T20:35:44.657Z,20.40
2017-11-04T20:38:12.353Z,19.10
2017-11-04T20:40:40.973Z,23.90
2017-11-04T20:43:08.623Z,21.83
2017-11-04T20:45:36.262Z,18.10
2017-11-04T20:48:04.688Z,20.13
2017-11-04T20:50:33.283Z,34.93
2017-11-04T20:53:00.907Z,19.67
2017-11-04T20:55:28.626Z,24.03
2017-11-04T20:57:56.237Z,18.50
2017-11-04T21:00:23.818Z,19.63
2017-11-04T21:02:51.460Z,30.67
2017-11-04T21:05:19.085Z,21.50
2017-11-04T21:07:47.530Z,21.65
2017-11-04T21:10:15.165Z,17.60
2017-11-04T21:12:42.801Z,20.80
2017-11-04T21:15:11.228Z,20.90
2017-11-04T21:17:38.984Z,18.13
2017-11-04T21:20:06.626Z,18.03
2017-11-04T21:22:34.267Z,14.20
2017-11-04T21:25:02.068Z,17.80
2017-11-04T21:27:29.724Z,17.23
2017-11-04T21:29:57.306Z,15.87
2017-11-04T21:32:25.895Z,14.40
2017-11-04T21:34:53.491Z,15.93
2017-11-04T21:37:21.868Z,15.20
2017-11-04T21:39:49.639Z,15.80
2017-11-04T21:42:17.555Z,14.97
2017-11-04T21:44:45.943Z,15.43
2017-11-04T21:47:13.585Z,13.67
2017-11-04T21:49:41.222Z,15.17
2017-11-04T21:52:08.929Z,11.53
2017-11-04T21:54:36.542Z,13.80
2017-11-04T21:57:05.121Z,14.93
2017-11-04T21:59:32.705Z,12.43
2017-11-04T22:02:01.189Z,14.00
2017-11-04T22:04:29.573Z,12.53
2017-11-04T22:06:57.977Z,13.70
2017-11-04T22:09:26.367Z,12.97
2017-11-04T22:11:53.970Z,12.63
2017-11-04T22:14:21.674Z,12.00
2017-11-04T22:16:49.263Z,13.63
2017-11-04T22:19:16.875Z,15.33
2017-11-04T22:21:44.514Z,13.50
2017-11-04T22:24:12.124Z,13.20
2017-11-04T22:26:39.729Z,14.17
2017-11-04T22:29:07.369Z,13.20
2017-11-04T22:31:34.957Z,15.97
2017-11-04T22:34:02.542Z,16.67
2017-11-04T22:36:30.124Z,16.60
2017-11-04T22:38:58.845Z,14.93
2017-11-04T22:41:26.805Z,12.67
2017-11-04T22:43:54.467Z,16.00
2017-11-04T22:46:22.143Z,15.07
2017-11-04T22:48:49.767Z,17.30
2017-11-04T22:51:17.402Z,12.30
2017-11-04T22:53:44.997Z,14.00
2017-11-04T22:56:12.618Z,14.90
2017-11-04T22:58:40.237Z,14.20
2017-11-04T23:01:07.917Z,15.33
2017-11-04T23:03:35.492Z,15.90
2017-11-04T23:06:03.935Z,18.73
2017-11-04T23:08:31.518Z,15.03
2017-11-04T23:10:59.175Z,13.87
2017-11-04T23:13:26.804Z,12.13
2017-11-04T23:15:55.142Z,14.00
2017-11-04T23:18:23.116Z,16.13
2017-11-04T23:20:50.788Z,16.47
2017-11-04T23:23:19.208Z,18.77
2017-11-04T23:25:46.809Z,14.13
2017-11-04T23:28:14.390Z,15.40
2017-11-04T23:30:41.993Z,15.70
2017-11-04T23:33:09.604Z,14.90
2017-11-04T23:35:37.207Z,17.43
2017-11-04T23:38:04.775Z,16.10
2017-11-04T23:40:32.541Z,16.00
2017-11-04T23:43:00.158Z,17.53
2017-11-04T23:45:28.526Z,15.27
2017-11-04T23:47:56.137Z,16.33
2017-11-04T23:50:23.737Z,15.60
2017-11-04T23:52:51.417Z,14.87
2017-11-04T23:55:19.058Z,14.23
2017-11-04T23:57:46.649Z,13.10
